Time;durP1;ratioP1;P1;durP2;ratioP2;P2;SDS_P1;SDS_P2;PMS_P1;PMS_P2;Temp;Humidity;BMP_temperature;BMP_pressure;BME280_temperature;BME280_humidity;BME280_pressure;Samples;Min_cycle;Max_cycle;Signal;HPM_P1;HPM_P2
2021/12/21 00:01:39;;;;;;;1.70;0.85;;;25.90;52.60;;;;;;4185988;28;20105;-58
2021/12/21 00:03:41;;;;;;;1.25;0.93;;;25.90;53.10;;;;;;4185386;28;20041;-59
2021/12/21 00:05:43;;;;;;;0.85;0.80;;;26.00;53.50;;;;;;4205650;28;20050;-57
2021/12/21 00:07:47;;;;;;;2.22;1.05;;;26.00;53.90;;;;;;4201792;28;20123;-56
2021/12/21 00:09:49;;;;;;;2.72;1.00;;;26.10;54.30;;;;;;4203834;28;20040;-59
2021/12/21 00:11:51;;;;;;;1.20;0.88;;;26.10;52.90;;;;;;4168133;28;20065;-58
2021/12/21 00:14:11;;;;;;;2.33;1.13;;;26.00;52.10;;;;;;4185411;28;20067;-56
2021/12/21 00:16:40;;;;;;;2.25;1.05;;;25.90;51.30;;;;;;4184740;28;20700;-57
2021/12/21 00:25:27;;;;;;;1.70;0.90;;;25.90;53.60;;;;;;4184674;28;20077;-58
2021/12/21 00:27:29;;;;;;;1.38;1.00;;;26.00;53.70;;;;;;4182310;28;20048;-56
2021/12/21 00:29:31;;;;;;;2.53;1.10;;;26.00;52.60;;;;;;4184705;28;20060;-58
2021/12/21 00:31:37;;;;;;;2.42;1.13;;;25.90;52.00;;;;;;4179976;28;20058;-57
2021/12/21 00:33:41;;;;;;;1.77;1.23;;;25.80;51.60;;;;;;4185723;28;20079;-57
2021/12/21 00:35:43;;;;;;;2.17;0.75;;;25.80;52.30;;;;;;4202513;28;20044;-57
2021/12/21 00:37:47;;;;;;;3.47;1.00;;;25.80;52.90;;;;;;4205213;28;20059;-58
2021/12/21 00:39:49;;;;;;;2.25;0.98;;;25.80;53.30;;;;;;4203780;28;20043;-59
2021/12/21 00:41:51;;;;;;;1.23;0.80;;;25.90;53.70;;;;;;4206373;28;20084;-59
2021/12/21 00:43:53;;;;;;;1.98;1.33;;;26.00;55.10;;;;;;4202994;28;20063;-56
2021/12/21 00:45:55;;;;;;;2.85;0.90;;;25.90;53.20;;;;;;4195204;28;20368;-57
2021/12/21 00:47:58;;;;;;;2.15;1.10;;;25.90;52.40;;;;;;4184887;28;20266;-59
2021/12/21 00:50:02;;;;;;;0.98;0.80;;;25.90;51.80;;;;;;4213668;28;20063;-58
2021/12/21 00:52:05;;;;;;;3.33;1.05;;;25.80;52.10;;;;;;4194305;28;20056;-58
2021/12/21 00:54:07;;;;;;;1.80;1.20;;;25.70;52.60;;;;;;4195704;28;20077;-57
2021/12/21 00:56:09;;;;;;;1.53;0.80;;;25.70;53.10;;;;;;4214855;28;20055;-58
2021/12/21 00:58:12;;;;;;;0.70;0.70;;;25.80;53.50;;;;;;4196625;28;20052;-60
2021/12/21 01:02:12;;;;;;;2.60;1.40;;;25.90;53.40;;;;;;4199630;27;20941;-58
2021/12/21 01:04:25;;;;;;;2.53;1.33;;;25.90;52.60;;;;;;4198606;28;20065;-57
2021/12/21 01:08:53;;;;;;;1.30;1.15;;;25.80;51.70;;;;;;4197535;28;20071;-57
2021/12/21 01:11:16;;;;;;;1.77;1.23;;;25.70;52.60;;;;;;4195602;28;20130;-53
2021/12/21 01:17:57;;;;;;;2.92;1.20;;;25.80;54.10;;;;;;4182839;28;20045;-60
2021/12/21 01:20:07;;;;;;;1.88;1.08;;;25.90;54.20;;;;;;4182343;28;20048;-58
2021/12/21 01:24:55;;;;;;;1.45;1.00;;;25.80;52.10;;;;;;4184522;28;20215;-58
2021/12/21 01:27:04;;;;;;;1.00;0.90;;;25.70;51.70;;;;;;4182629;28;20057;-56
2021/12/21 01:29:54;;;;;;;1.10;1.00;;;25.60;52.20;;;;;;4184921;28;20100;-59
2021/12/21 01:36:07;;;;;;;1.27;1.00;;;25.70;54.40;;;;;;4184923;28;20106;-55
2021/12/21 01:51:12;;;;;;;3.03;1.60;;;25.60;53.50;;;;;;4185209;28;20052;-59
2021/12/21 01:53:14;;;;;;;4.03;1.90;;;25.70;53.70;;;;;;4182946;28;20144;-59
2021/12/21 01:55:16;;;;;;;2.65;1.50;;;25.70;54.00;;;;;;4185686;28;20113;-59
2021/12/21 01:57:19;;;;;;;1.77;1.40;;;25.80;52.70;;;;;;4188227;28;20048;-57
2021/12/21 01:59:21;;;;;;;2.53;1.40;;;25.70;52.00;;;;;;4186890;28;20052;-61
2021/12/21 02:01:27;;;;;;;2.72;1.25;;;25.60;51.60;;;;;;4185485;28;20083;-59
2021/12/21 02:03:30;;;;;;;3.70;1.70;;;25.60;52.00;;;;;;4184317;28;20095;-55
2021/12/21 02:05:32;;;;;;;3.15;1.48;;;25.60;52.90;;;;;;4185072;28;20079;-57
2021/12/21 02:07:34;;;;;;;1.53;1.07;;;25.60;53.50;;;;;;4186300;28;20052;-58
2021/12/21 02:09:40;;;;;;;3.42;1.20;;;25.70;54.40;;;;;;4186454;28;20336;-57
2021/12/21 02:11:42;;;;;;;2.55;0.90;;;25.70;54.90;;;;;;4183022;28;20445;-57
2021/12/21 02:13:48;;;;;;;2.05;1.20;;;25.70;53.40;;;;;;4173778;28;20033;-60
2021/12/21 02:15:50;;;;;;;1.98;0.90;;;25.70;52.60;;;;;;4175904;28;20095;-58
2021/12/21 02:22:25;;;;;;;1.70;0.90;;;25.50;52.60;;;;;;4173594;28;20054;-59
2021/12/21 02:24:38;;;;;;;1.00;0.70;;;25.50;53.20;;;;;;4167957;28;20800;-58
2021/12/21 02:26:47;;;;;;;2.65;1.30;;;25.60;53.70;;;;;;4171382;28;20072;-59
2021/12/21 02:31:01;;;;;;;1.55;0.77;;;25.70;54.00;;;;;;4171818;28;20142;-56
2021/12/21 02:33:03;;;;;;;0.73;0.70;;;25.70;52.80;;;;;;4168609;28;20508;-59
2021/12/21 02:35:06;;;;;;;1.77;1.00;;;25.70;52.00;;;;;;4203386;28;20481;-57
2021/12/21 02:37:08;;;;;;;1.23;0.55;;;25.60;51.80;;;;;;4168240;28;20131;-55
2021/12/21 02:39:10;;;;;;;0.85;0.50;;;25.50;52.10;;;;;;4168871;28;20075;-56
2021/12/21 02:41:13;;;;;;;1.42;0.75;;;25.60;52.80;;;;;;4167714;28;20044;-55
2021/12/21 02:43:16;;;;;;;2.70;0.80;;;25.60;53.30;;;;;;4170042;28;20103;-56
2021/12/21 02:45:18;;;;;;;2.30;0.80;;;25.60;53.70;;;;;;4170165;28;20049;-56
2021/12/21 02:47:20;;;;;;;1.20;0.80;;;25.70;54.30;;;;;;4168525;28;20048;-56
2021/12/21 02:49:25;;;;;;;2.00;0.73;;;25.80;53.80;;;;;;4170025;28;20045;-56
2021/12/21 02:51:28;;;;;;;1.92;1.10;;;25.70;52.40;;;;;;4167812;28;20041;-56
2021/12/21 02:53:30;;;;;;;0.50;0.50;;;25.70;51.80;;;;;;4169262;28;20052;-57
2021/12/21 02:55:32;;;;;;;2.88;0.90;;;25.70;51.20;;;;;;4169599;28;20103;-55
2021/12/21 02:57:35;;;;;;;1.10;0.57;;;25.60;51.70;;;;;;4172201;28;20040;-57
2021/12/21 02:59:37;;;;;;;1.48;0.93;;;25.60;52.50;;;;;;4171655;28;20064;-57
2021/12/21 03:01:40;;;;;;;2.65;0.77;;;25.60;53.00;;;;;;4152684;28;20058;-57
2021/12/21 03:03:42;;;;;;;1.42;0.85;;;25.70;54.00;;;;;;4167266;28;20051;-58
2021/12/21 03:05:49;;;;;;;1.60;0.70;;;25.70;54.40;;;;;;4168282;28;20107;-57
2021/12/21 03:08:10;;;;;;;0.95;0.75;;;25.80;53.00;;;;;;4167814;28;20110;-59
2021/12/21 03:10:15;;;;;;;2.60;0.80;;;25.70;51.80;;;;;;4169492;28;20060;-59
2021/12/21 03:14:26;;;;;;;0.90;0.80;;;25.60;50.90;;;;;;4170874;28;20052;-56
2021/12/21 03:16:28;;;;;;;0.90;0.73;;;25.60;51.70;;;;;;4169160;28;20049;-54
2021/12/21 03:18:30;;;;;;;1.52;0.47;;;25.60;52.30;;;;;;4168863;28;20080;-59
2021/12/21 03:20:33;;;;;;;0.93;0.70;;;25.60;52.70;;;;;;4150989;28;20069;-57
2021/12/21 03:22:35;;;;;;;1.57;0.73;;;25.70;53.00;;;;;;4171934;28;20049;-57
2021/12/21 03:24:41;;;;;;;1.70;0.88;;;25.70;53.90;;;;;;4167124;28;20080;-58
2021/12/21 03:26:43;;;;;;;2.28;0.90;;;25.70;52.30;;;;;;4171961;28;20052;-58
2021/12/21 03:28:45;;;;;;;1.15;0.85;;;25.70;51.30;;;;;;4202074;28;20459;-58
2021/12/21 03:30:47;;;;;;;0.68;0.68;;;25.60;50.90;;;;;;4171489;28;20056;-59
2021/12/21 03:32:49;;;;;;;1.35;0.77;;;25.60;50.70;;;;;;4169925;28;20144;-58
2021/12/21 03:34:51;;;;;;;0.73;0.70;;;25.50;51.50;;;;;;4152915;28;20119;-53
2021/12/21 03:36:55;;;;;;;1.48;0.77;;;25.60;52.10;;;;;;4169981;28;20079;-53
2021/12/21 03:39:07;;;;;;;1.20;0.73;;;25.60;52.50;;;;;;4168822;28;20106;-59
2021/12/21 03:41:14;;;;;;;1.65;0.80;;;25.70;52.90;;;;;;4169178;28;20067;-57
2021/12/21 03:43:16;;;;;;;0.95;0.60;;;25.70;53.00;;;;;;4170180;28;20057;-58
2021/12/21 03:45:18;;;;;;;2.55;1.02;;;25.80;52.10;;;;;;4168386;28;20052;-55
2021/12/21 03:47:23;;;;;;;1.23;0.90;;;25.70;51.40;;;;;;4169413;28;20056;-58
2021/12/21 03:51:35;;;;;;;0.70;0.63;;;25.60;51.50;;;;;;4165672;28;20107;-58
2021/12/21 03:53:38;;;;;;;1.05;0.60;;;25.50;50.80;;;;;;4166515;28;20243;-57
2021/12/21 03:55:40;;;;;;;0.85;0.65;;;25.50;51.70;;;;;;4168600;28;20049;-60
2021/12/21 03:57:43;;;;;;;1.48;0.80;;;25.50;52.20;;;;;;4167331;28;20053;-61
2021/12/21 03:59:47;;;;;;;1.52;0.57;;;25.60;52.60;;;;;;4167718;28;20045;-58
2021/12/21 04:02:14;;;;;;;1.48;0.75;;;25.70;52.60;;;;;;4197430;27;20439;-58
2021/12/21 04:04:20;;;;;;;0.90;0.70;;;25.70;52.80;;;;;;4196546;28;20063;-58
2021/12/21 04:06:22;;;;;;;2.10;0.90;;;25.70;51.70;;;;;;4197890;28;20085;-60
2021/12/21 04:08:24;;;;;;;0.98;0.77;;;25.70;51.00;;;;;;4196829;28;20056;-61
2021/12/21 04:10:26;;;;;;;2.50;1.10;;;25.60;50.50;;;;;;4196078;28;20078;-63
2021/12/21 04:12:28;;;;;;;3.90;1.20;;;25.60;50.90;;;;;;4195519;28;20043;-60
2021/12/21 04:14:35;;;;;;;6.40;1.48;;;25.60;52.40;;;;;;4195200;28;20048;-60
2021/12/21 04:16:37;;;;;;;4.32;1.13;;;25.60;52.50;;;;;;4196761;28;20090;-59
2021/12/21 04:18:40;;;;;;;3.47;1.40;;;25.70;52.70;;;;;;4197756;28;20105;-60
2021/12/21 04:20:42;;;;;;;2.65;0.95;;;25.80;53.50;;;;;;4195718;28;20052;-60
2021/12/21 04:22:44;;;;;;;3.57;1.17;;;25.80;52.50;;;;;;4194344;28;20082;-62
2021/12/21 04:24:46;;;;;;;2.25;1.10;;;25.80;51.90;;;;;;4190363;28;20355;-60
2021/12/21 04:26:49;;;;;;;2.93;1.20;;;25.80;51.50;;;;;;4194097;28;20622;-60
2021/12/21 04:28:51;;;;;;;2.92;1.23;;;25.70;51.10;;;;;;4192998;28;20490;-61
2021/12/21 04:30:53;;;;;;;3.60;1.02;;;25.70;50.90;;;;;;4192734;28;20064;-62
2021/12/21 04:32:55;;;;;;;2.63;0.90;;;25.70;51.30;;;;;;4194354;28;20098;-60
2021/12/21 04:34:57;;;;;;;2.60;1.30;;;25.70;52.00;;;;;;4195156;28;20072;-60
2021/12/21 04:36:59;;;;;;;2.65;0.80;;;25.70;52.30;;;;;;4195315;28;20052;-59
2021/12/21 04:39:05;;;;;;;2.72;0.90;;;25.80;52.50;;;;;;4197060;28;20422;-60
2021/12/21 04:41:16;;;;;;;9.23;1.40;;;26.00;53.20;;;;;;4195753;28;20136;-60
2021/12/21 04:43:18;;;;;;;2.10;0.95;;;26.00;52.70;;;;;;4191387;28;20051;-58
2021/12/21 04:45:20;;;;;;;1.48;0.95;;;26.00;51.70;;;;;;4189570;28;20048;-58
2021/12/21 04:47:22;;;;;;;2.08;1.15;;;26.00;51.10;;;;;;4191397;28;20048;-57
2021/12/21 04:49:25;;;;;;;2.53;1.23;;;25.90;51.00;;;;;;4190911;28;20475;-58
2021/12/21 04:51:27;;;;;;;3.03;1.30;;;25.90;51.00;;;;;;4188565;28;20139;-57
2021/12/21 04:53:29;;;;;;;3.47;1.70;;;25.90;50.80;;;;;;4190188;28;20198;-54
2021/12/21 04:55:31;;;;;;;2.10;1.10;;;25.90;51.30;;;;;;4193257;28;20063;-57
2021/12/21 04:57:33;;;;;;;2.25;1.10;;;25.90;52.40;;;;;;4196409;28;20913;-59
2021/12/21 04:59:36;;;;;;;2.67;1.30;;;26.00;52.10;;;;;;4195464;28;20423;-57
2021/12/21 05:01:38;;;;;;;3.17;1.40;;;26.10;52.60;;;;;;4193156;28;20056;-58
2021/12/21 05:03:40;;;;;;;3.47;1.83;;;26.20;52.60;;;;;;4191118;28;20849;-59
2021/12/21 05:05:43;;;;;;;3.45;1.70;;;26.20;51.10;;;;;;4193855;28;20073;-59
2021/12/21 05:07:50;;;;;;;2.50;1.10;;;26.20;50.90;;;;;;4194196;28;20075;-58
2021/12/21 05:09:57;;;;;;;3.25;1.40;;;26.10;50.40;;;;;;4197913;28;20109;-58
2021/12/21 05:12:05;;;;;;;2.78;1.42;;;26.10;50.30;;;;;;4188665;28;20048;-58
2021/12/21 05:14:09;;;;;;;4.30;1.23;;;26.00;50.70;;;;;;4181850;28;20163;-62
2021/12/21 05:16:11;;;;;;;13.13;1.50;;;26.10;51.10;;;;;;4179506;28;20098;-62
2021/12/21 05:18:14;;;;;;;6.22;1.40;;;26.20;51.30;;;;;;4171541;28;20053;-62
2021/12/21 05:20:16;;;;;;;3.80;1.42;;;26.30;51.70;;;;;;4172102;28;20835;-60
2021/12/21 05:22:18;;;;;;;2.45;1.45;;;26.40;52.10;;;;;;4179307;28;20159;-61
2021/12/21 05:24:20;;;;;;;1.58;1.10;;;26.40;51.00;;;;;;4173225;28;20143;-61
2021/12/21 05:26:23;;;;;;;2.63;0.93;;;26.40;50.40;;;;;;4185077;28;20052;-60
2021/12/21 05:28:25;;;;;;;2.90;1.30;;;26.30;50.00;;;;;;4182133;28;20718;-62
2021/12/21 05:30:27;;;;;;;2.90;1.20;;;26.30;49.90;;;;;;4183882;28;20480;-60
2021/12/21 05:32:30;;;;;;;2.00;0.90;;;26.20;49.90;;;;;;4182779;28;20148;-60
2021/12/21 05:34:32;;;;;;;2.00;1.10;;;26.20;50.60;;;;;;4183649;28;20082;-60
2021/12/21 05:36:35;;;;;;;2.95;0.90;;;26.30;50.90;;;;;;4181302;28;20181;-63
2021/12/21 05:38:37;;;;;;;2.00;0.80;;;26.40;51.20;;;;;;4179891;28;20053;-59
2021/12/21 05:40:42;;;;;;;3.13;1.20;;;26.50;52.20;;;;;;4180102;28;20049;-60
2021/12/21 05:42:47;;;;;;;3.13;1.30;;;26.50;51.20;;;;;;4167966;28;20148;-59
2021/12/21 05:44:49;;;;;;;4.88;1.45;;;26.50;50.40;;;;;;4185534;28;20105;-59
2021/12/21 05:46:54;;;;;;;1.40;0.90;;;26.50;49.90;;;;;;4182690;28;20056;-60
2021/12/21 05:48:56;;;;;;;3.75;1.50;;;26.50;49.70;;;;;;4167929;28;20535;-59
2021/12/21 05:50:58;;;;;;;4.47;1.88;;;26.40;49.60;;;;;;4186042;28;20087;-59
2021/12/21 05:53:00;;;;;;;3.35;1.33;;;26.30;50.10;;;;;;4183325;28;20044;-60
2021/12/21 05:55:05;;;;;;;4.75;1.52;;;26.30;50.30;;;;;;4183125;28;20655;-61
2021/12/21 05:57:07;;;;;;;3.20;1.45;;;26.40;50.60;;;;;;4181833;28;20056;-62
2021/12/21 05:59:09;;;;;;;7.43;2.65;;;26.50;50.80;;;;;;4183738;28;20369;-60
2021/12/21 06:01:12;;;;;;;8.30;2.57;;;26.60;51.80;;;;;;4180710;28;20053;-62
2021/12/21 06:03:14;;;;;;;9.38;3.20;;;26.60;50.80;;;;;;4175589;28;20539;-58
2021/12/21 06:05:16;;;;;;;6.97;2.65;;;26.60;50.30;;;;;;4179701;28;20160;-61
2021/12/21 06:07:18;;;;;;;7.30;2.53;;;26.60;50.10;;;;;;4177670;28;20713;-62
2021/12/21 06:09:21;;;;;;;7.70;2.67;;;26.50;49.80;;;;;;4185232;28;20048;-60
2021/12/21 06:11:23;;;;;;;6.10;2.58;;;26.50;50.00;;;;;;4180946;28;20063;-58
2021/12/21 06:27:25;;;;;;;2.38;1.40;;;26.60;49.60;;;;;;4179170;28;20048;-58
2021/12/21 06:29:27;;;;;;;4.38;1.85;;;26.60;49.40;;;;;;4177211;28;20048;-61
2021/12/21 06:31:30;;;;;;;4.60;1.63;;;26.50;49.00;;;;;;4174936;28;20048;-59
2021/12/21 06:33:33;;;;;;;3.90;1.75;;;26.40;48.90;;;;;;4182362;28;20454;-60
2021/12/21 06:35:35;;;;;;;;;;;26.40;49.50;;;;;;4179266;28;20507;-60
2021/12/21 06:37:38;;;;;;;4.05;1.52;;;26.40;50.20;;;;;;4179221;28;20039;-58
2021/12/21 06:39:40;;;;;;;3.47;1.00;;;26.50;50.40;;;;;;4181435;28;20105;-59
2021/12/21 06:41:43;;;;;;;2.55;1.40;;;26.60;51.50;;;;;;4180556;28;20511;-59
2021/12/21 06:43:45;;;;;;;4.40;1.48;;;26.70;50.90;;;;;;4177798;28;20475;-57
2021/12/21 06:52:40;;;;;;;2.38;1.20;;;26.40;49.10;;;;;;4161265;28;20048;-59
2021/12/21 06:54:42;;;;;;;1.70;1.10;;;26.30;49.10;;;;;;4176149;28;20055;-59
2021/12/21 06:56:44;;;;;;;3.53;1.10;;;26.20;49.60;;;;;;4168027;28;20858;-61
2021/12/21 06:58:47;;;;;;;2.97;1.10;;;26.30;50.20;;;;;;4171330;28;20566;-60
2021/12/21 07:02:12;;;;;;;2.10;0.80;;;26.50;50.10;;;;;;4206564;27;20430;-61
2021/12/21 07:04:17;;;;;;;1.38;0.73;;;26.50;51.10;;;;;;4205271;28;20135;-60
2021/12/21 07:06:20;;;;;;;1.92;1.20;;;26.50;50.10;;;;;;4205237;28;20043;-60
2021/12/21 07:08:27;;;;;;;3.17;1.23;;;26.40;49.80;;;;;;4205188;28;20064;-59
2021/12/21 07:10:31;;;;;;;4.32;1.52;;;26.40;49.60;;;;;;4202322;28;20048;-63
2021/12/21 07:19:17;;;;;;;2.08;0.80;;;26.10;50.40;;;;;;4205923;28;20154;-57
2021/12/21 07:21:19;;;;;;;1.67;0.80;;;26.20;50.90;;;;;;4204608;28;20048;-58
2021/12/21 07:23:21;;;;;;;2.80;1.17;;;26.30;52.20;;;;;;4201778;28;20108;-58
2021/12/21 07:25:27;;;;;;;2.40;1.20;;;26.30;51.30;;;;;;4205425;28;20128;-52
2021/12/21 07:27:29;;;;;;;2.92;1.30;;;26.20;50.70;;;;;;4207146;28;20723;-52
2021/12/21 07:29:31;;;;;;;1.52;0.73;;;26.20;49.90;;;;;;4210895;28;20058;-51
2021/12/21 07:31:33;;;;;;;2.13;0.90;;;26.10;49.70;;;;;;4209559;28;20124;-51
2021/12/21 07:33:36;;;;;;;2.70;1.13;;;26.00;49.50;;;;;;4208131;28;20526;-51
2021/12/21 07:35:38;;;;;;;2.17;1.05;;;25.90;49.40;;;;;;4209041;28;20072;-56
2021/12/21 07:37:40;;;;;;;1.80;1.00;;;25.80;50.00;;;;;;4190634;28;20158;-52
2021/12/21 07:39:42;;;;;;;0.98;0.75;;;25.80;50.40;;;;;;4206687;28;21850;-53
2021/12/21 07:44:42;;;;;;;1.38;0.85;;;26.00;52.10;;;;;;4204931;28;20055;-56
2021/12/21 07:46:44;;;;;;;0.97;0.80;;;26.00;51.20;;;;;;4218204;27;20182;-55
2021/12/21 07:48:47;;;;;;;3.08;1.20;;;26.00;50.60;;;;;;4208778;28;20684;-53
2021/12/21 07:50:51;;;;;;;1.83;1.30;;;25.90;50.30;;;;;;4204942;28;20054;-55
2021/12/21 07:52:55;;;;;;;2.05;0.93;;;25.80;50.30;;;;;;4208138;28;20059;-56
2021/12/21 07:54:58;;;;;;;2.28;1.00;;;25.70;50.10;;;;;;4206623;28;20055;-54
2021/12/21 07:57:00;;;;;;;2.50;1.03;;;25.70;50.80;;;;;;4208729;28;20074;-58
2021/12/21 07:59:04;;;;;;;1.77;0.98;;;25.60;50.90;;;;;;4208377;28;20048;-55
2021/12/21 08:01:07;;;;;;;1.85;1.00;;;25.70;51.50;;;;;;4206547;28;20052;-57
2021/12/21 08:03:14;;;;;;;2.58;0.95;;;25.70;51.80;;;;;;4206252;28;20055;-54
2021/12/21 08:05:17;;;;;;;2.08;1.10;;;25.80;53.10;;;;;;4206053;28;20052;-56
2021/12/21 08:07:24;;;;;;;1.92;1.13;;;25.80;51.80;;;;;;4189112;28;20971;-55
2021/12/21 08:09:32;;;;;;;1.70;1.02;;;25.80;51.00;;;;;;4206552;28;20048;-55
2021/12/21 08:13:39;;;;;;;1.88;1.15;;;25.60;50.50;;;;;;4197022;28;20072;-57
2021/12/21 08:15:41;;;;;;;2.05;0.93;;;25.50;50.30;;;;;;4198095;28;20060;-59
2021/12/21 08:17:44;;;;;;;3.03;1.13;;;25.50;51.70;;;;;;4193425;28;20048;-54
2021/12/21 08:19:48;;;;;;;2.63;0.90;;;25.50;51.50;;;;;;4197732;28;20095;-56
2021/12/21 08:21:50;;;;;;;2.53;0.88;;;25.60;51.90;;;;;;4195358;28;20136;-57
2021/12/21 08:23:53;;;;;;;5.23;1.30;;;25.60;52.60;;;;;;4195853;28;20104;-56
2021/12/21 08:25:56;;;;;;;2.13;1.05;;;25.70;52.80;;;;;;4195097;28;20059;-57
2021/12/21 08:28:00;;;;;;;3.85;1.27;;;25.60;51.60;;;;;;4196331;28;20100;-59
2021/12/21 08:30:03;;;;;;;2.10;1.30;;;25.60;51.10;;;;;;4192372;28;20060;-60
2021/12/21 08:32:06;;;;;;;4.20;1.30;;;25.50;50.80;;;;;;4197639;28;20105;-59
2021/12/21 08:34:11;;;;;;;1.65;1.00;;;25.40;50.50;;;;;;4196488;28;20143;-61
2021/12/21 08:36:13;;;;;;;2.42;1.20;;;25.40;51.00;;;;;;4192481;28;20087;-60
2021/12/21 08:38:18;;;;;;;2.03;1.33;;;25.40;51.60;;;;;;4195533;28;20076;-59
2021/12/21 08:40:22;;;;;;;1.45;0.88;;;25.40;51.90;;;;;;4196767;28;20403;-60
2021/12/21 08:42:26;;;;;;;2.47;1.25;;;25.40;52.30;;;;;;4194842;28;20059;-61
2021/12/21 08:44:29;;;;;;;1.55;1.10;;;25.50;53.80;;;;;;4198374;28;20093;-61
2021/12/21 08:46:32;;;;;;;3.22;1.58;;;25.50;52.50;;;;;;4195293;28;20117;-63
2021/12/21 08:48:35;;;;;;;2.60;1.47;;;25.50;51.70;;;;;;4196077;28;20103;-61
2021/12/21 08:50:37;;;;;;;;;;;25.40;51.10;;;;;;4194926;28;20423;-59
2021/12/21 08:52:40;;;;;;;2.60;1.65;;;25.30;50.80;;;;;;4197544;28;19932;-58
2021/12/21 08:54:43;;;;;;;1.40;1.05;;;25.20;50.70;;;;;;4196581;28;20043;-59
2021/12/21 08:56:48;;;;;;;2.00;1.15;;;25.20;51.40;;;;;;4197990;28;20209;-61
2021/12/21 08:58:50;;;;;;;2.88;1.30;;;25.20;51.90;;;;;;4193595;28;20052;-59
2021/12/21 09:00:53;;;;;;;1.60;0.90;;;25.30;52.40;;;;;;4198324;28;20423;-61
2021/12/21 09:02:55;;;;;;;3.63;1.30;;;25.30;52.80;;;;;;4197758;28;20825;-60
2021/12/21 09:04:57;;;;;;;1.95;1.30;;;25.30;53.30;;;;;;4197659;28;20095;-61
2021/12/21 09:07:00;;;;;;;4.00;1.73;;;25.40;52.30;;;;;;4217271;28;20222;-66
2021/12/21 09:09:02;;;;;;;2.33;1.30;;;25.30;52.60;;;;;;4218099;28;20051;-64
2021/12/21 09:11:05;;;;;;;4.38;1.30;;;25.30;53.10;;;;;;4198144;28;20048;-59
2021/12/21 09:13:09;;;;;;;4.40;1.20;;;25.30;53.50;;;;;;4198207;28;20541;-56
2021/12/21 09:15:13;;;;;;;2.90;1.13;;;25.30;53.80;;;;;;4197743;28;20066;-60
2021/12/21 09:17:15;;;;;;;3.17;1.48;;;25.40;54.10;;;;;;4197493;28;20070;-59
2021/12/21 09:19:18;;;;;;;1.20;1.10;;;25.50;54.40;;;;;;4198478;28;20816;-59
2021/12/21 09:21:20;;;;;;;3.13;1.52;;;25.60;54.50;;;;;;4180124;28;20056;-60
2021/12/21 09:23:22;;;;;;;2.45;0.80;;;25.60;54.70;;;;;;4197742;28;20040;-60
2021/12/21 09:25:26;;;;;;;3.58;1.30;;;25.70;54.90;;;;;;4196319;28;20411;-60
2021/12/21 09:27:28;;;;;;;5.60;1.88;;;25.80;55.50;;;;;;4190568;28;20067;-57
2021/12/21 09:29:30;;;;;;;4.00;1.92;;;25.90;57.20;;;;;;4196932;28;20052;-59
2021/12/21 09:31:32;;;;;;;4.13;1.88;;;25.90;57.60;;;;;;4194346;28;20051;-58
2021/12/21 09:33:35;;;;;;;4.35;1.63;;;26.00;57.80;;;;;;4195198;28;20048;-58
2021/12/21 09:35:37;;;;;;;4.32;1.70;;;26.10;57.80;;;;;;4195212;28;20068;-58
2021/12/21 09:37:39;;;;;;;4.60;1.42;;;26.10;58.00;;;;;;4196604;28;20063;-58
2021/12/21 09:39:47;;;;;;;3.67;1.90;;;26.30;58.10;;;;;;4194701;28;20052;-59
2021/12/21 09:41:49;;;;;;;2.95;1.45;;;26.30;58.00;;;;;;4198014;28;20052;-58
2021/12/21 09:43:52;;;;;;;3.40;1.40;;;26.40;57.90;;;;;;4193673;28;20598;-60
2021/12/21 09:45:54;;;;;;;3.30;1.70;;;26.50;57.70;;;;;;4177454;28;20044;-57
2021/12/21 09:47:57;;;;;;;2.17;1.20;;;26.50;57.60;;;;;;4192213;28;20149;-59
2021/12/21 09:50:00;;;;;;;3.13;1.50;;;26.50;57.60;;;;;;4163654;28;21071;-59
2021/12/21 09:52:04;;;;;;;3.75;1.42;;;26.60;57.60;;;;;;4157227;28;20048;-57
2021/12/21 09:54:08;;;;;;;2.95;1.50;;;26.60;57.50;;;;;;4156811;28;20055;-57
2021/12/21 09:56:11;;;;;;;2.30;0.98;;;26.70;57.50;;;;;;4168057;28;20407;-60
2021/12/21 09:58:13;;;;;;;;;;;26.70;57.40;;;;;;4163443;28;20056;-59
2021/12/21 10:02:18;;;;;;;1.67;1.10;;;26.80;56.80;;;;;;4119950;23;20449;-78
2021/12/21 10:04:31;;;;;;;2.15;1.05;;;26.90;57.40;;;;;;4054353;28;20111;-79
2021/12/21 10:06:49;;;;;;;3.38;1.20;;;26.90;57.40;;;;;;4087052;28;20058;-76
2021/12/21 10:09:08;;;;;;;1.70;1.10;;;27.00;57.40;;;;;;4080072;28;20051;-78
2021/12/21 10:11:20;;;;;;;2.08;0.82;;;27.00;57.40;;;;;;4063440;28;20059;-77
2021/12/21 10:13:27;;;;;;;1.73;0.90;;;27.10;57.40;;;;;;4068952;28;20759;-78
2021/12/21 10:15:30;;;;;;;2.22;1.10;;;27.10;57.50;;;;;;4088013;28;20086;-76
2021/12/21 10:17:33;;;;;;;1.42;1.10;;;27.20;57.50;;;;;;4062773;28;20382;-78
2021/12/21 10:19:37;;;;;;;3.50;1.02;;;27.20;57.40;;;;;;4073623;28;20090;-78
2021/12/21 10:21:46;;;;;;;2.15;0.90;;;27.30;57.60;;;;;;4055334;28;20139;-78
2021/12/21 10:23:54;;;;;;;1.63;1.05;;;27.30;57.60;;;;;;4072108;28;20050;-77
2021/12/21 10:26:07;;;;;;;2.83;1.10;;;27.30;57.60;;;;;;4070148;28;20051;-78
2021/12/21 10:28:13;;;;;;;2.50;1.25;;;27.40;57.60;;;;;;4051030;28;20059;-77
2021/12/21 10:30:16;;;;;;;1.42;1.05;;;27.50;57.70;;;;;;4086277;28;20046;-78
2021/12/21 10:32:29;;;;;;;2.10;0.93;;;27.50;57.60;;;;;;4063449;28;20062;-78
2021/12/21 10:34:35;;;;;;;2.45;0.90;;;27.50;57.40;;;;;;4065909;28;21655;-79
2021/12/21 10:36:56;;;;;;;3.85;1.00;;;27.60;57.40;;;;;;4079219;28;20517;-78
2021/12/21 10:39:03;;;;;;;3.30;1.10;;;27.60;57.60;;;;;;4067412;28;20059;-79
2021/12/21 10:41:17;;;;;;;1.40;0.82;;;27.60;57.60;;;;;;4080197;28;20047;-77
2021/12/21 10:43:26;;;;;;;3.42;1.30;;;27.70;57.70;;;;;;4045740;29;20874;-79
2021/12/21 10:45:43;;;;;;;1.50;0.77;;;27.70;57.80;;;;;;4058750;28;20166;-77
2021/12/21 10:47:47;;;;;;;3.28;1.33;;;27.80;57.90;;;;;;4042130;29;20063;-78
2021/12/21 10:49:52;;;;;;;3.70;1.08;;;27.80;57.90;;;;;;4073738;28;20062;-76
2021/12/21 10:52:09;;;;;;;1.80;1.02;;;27.80;57.90;;;;;;4091840;28;20051;-77
2021/12/21 10:54:12;;;;;;;1.80;0.80;;;27.90;58.00;;;;;;4090499;28;20125;-80
2021/12/21 10:56:16;;;;;;;4.15;0.85;;;27.90;58.00;;;;;;4044761;28;20219;-76
2021/12/21 10:58:19;;;;;;;1.92;0.85;;;27.90;57.90;;;;;;4081626;28;20055;-79
2021/12/21 11:00:23;;;;;;;2.97;1.05;;;28.00;58.00;;;;;;4059094;28;20733;-77
2021/12/21 11:02:35;;;;;;;1.98;1.00;;;28.00;57.90;;;;;;4061512;28;20087;-79
2021/12/21 11:04:51;;;;;;;1.00;0.70;;;28.00;57.80;;;;;;4078372;28;20162;-79
2021/12/21 11:06:55;;;;;;;2.17;0.98;;;28.10;57.80;;;;;;4076333;28;20053;-78
2021/12/21 11:08:57;;;;;;;4.00;1.17;;;28.10;57.80;;;;;;4093653;28;20058;-77
2021/12/21 11:11:00;;;;;;;2.30;1.00;;;28.10;57.80;;;;;;4100620;28;20369;-80
2021/12/21 11:13:10;;;;;;;1.83;0.85;;;28.20;57.80;;;;;;4069703;28;20510;-79
2021/12/21 11:15:29;;;;;;;2.13;0.90;;;28.20;57.80;;;;;;4084250;28;20477;-75
2021/12/21 11:17:31;;;;;;;1.77;0.80;;;28.20;57.80;;;;;;4053353;29;20647;-78
2021/12/21 11:19:33;;;;;;;1.20;0.70;;;28.30;57.80;;;;;;4084064;28;20039;-77
2021/12/21 11:21:36;;;;;;;2.13;0.97;;;28.30;57.90;;;;;;4055142;28;20115;-78
2021/12/21 11:23:40;;;;;;;2.10;1.02;;;28.30;57.90;;;;;;4058113;29;21714;-77
2021/12/21 11:25:43;;;;;;;2.97;1.10;;;28.30;57.90;;;;;;4048074;29;20043;-79
2021/12/21 11:27:45;;;;;;;1.50;0.90;;;28.40;57.90;;;;;;4064760;28;20074;-79
2021/12/21 11:29:50;;;;;;;1.17;0.82;;;28.30;58.60;;;;;;4058696;29;20146;-76
2021/12/21 11:37:20;;;;;;;2.80;0.90;;;28.40;58.00;;;;;;4051696;29;20047;-76
2021/12/21 11:37:22;;;;;;;3.65;1.17;;;28.50;58.10;;;;;;4076128;28;20761;-80
2021/12/21 11:39:30;;;;;;;1.63;1.00;;;28.50;57.90;;;;;;4048962;29;20098;-75
2021/12/21 11:41:33;;;;;;;1.98;0.98;;;28.50;57.90;;;;;;4061999;28;20137;-77
2021/12/21 11:44:05;;;;;;;1.95;1.10;;;28.50;58.00;;;;;;4090458;28;20074;-77
2021/12/21 11:46:13;;;;;;;1.95;1.10;;;28.60;58.10;;;;;;4051154;29;20047;-80
2021/12/21 11:51:14;;;;;;;3.40;1.00;;;28.60;58.10;;;;;;4085890;28;20050;-77
2021/12/21 11:53:21;;;;;;;2.00;1.05;;;28.60;58.20;;;;;;4053845;29;20110;-77
2021/12/21 11:55:26;;;;;;;2.08;1.00;;;28.60;58.20;;;;;;4050225;29;20493;-77
2021/12/21 11:57:43;;;;;;;2.10;0.90;;;28.70;58.20;;;;;;4052184;29;20050;-77
2021/12/21 11:59:49;;;;;;;2.38;0.90;;;28.60;58.20;;;;;;4063343;28;20068;-75
2021/12/21 12:01:52;;;;;;;1.83;1.00;;;28.70;58.10;;;;;;4050414;29;20052;-75
2021/12/21 12:04:01;;;;;;;;;;;28.70;58.20;;;;;;4055613;28;20051;-78
2021/12/21 12:06:13;;;;;;;1.35;0.75;;;28.70;58.20;;;;;;4034624;29;22512;-76
2021/12/21 12:08:16;;;;;;;3.08;1.17;;;28.70;58.20;;;;;;4069479;28;21350;-76
2021/12/21 12:10:21;;;;;;;1.73;1.02;;;28.70;58.20;;;;;;4066886;28;20081;-76
2021/12/21 12:12:38;;;;;;;3.10;1.15;;;28.80;58.40;;;;;;4032425;29;20052;-76
2021/12/21 12:14:45;;;;;;;2.30;1.15;;;28.80;58.30;;;;;;4049040;29;20067;-75
2021/12/21 12:16:51;;;;;;;1.70;0.90;;;28.80;58.30;;;;;;4049637;29;20122;-78
2021/12/21 12:18:54;;;;;;;2.60;1.08;;;28.80;58.30;;;;;;4088390;28;20066;-76